Thalia — FPCS — position and weather

sailwx.info

Track history (hours):
 
Tides and Currents Weather Stations Pressure Air Temp Water Temp Dewpoint Dewpoint Depression Visibility Wind Speed Wind Dir Waves Ship Positions

Oceanographic research ship Thalia (France)

Detailed information on ship capabilities available from University of Delaware's Ocean Information Center.

Last reported at 2020-Sep-23 11:43 UTC. Time now 2020-Sep-24 07:19 UTC.
Position N 47°11' W 002°17'.

Length 25 m; beam 7 m.

Type: Fishing. MMSI: 227270000.

Date/timePositionNaut miles runAvg speedWind from/ knotsBaromVisibWave heightAir tempDewpointWater temp
2020-Sep-23 11:43N 47°11' W 002°17'1 1.6
2020-Sep-23 10:59N 47°10' W 002°16'1 2.8
2020-Sep-23 10:30N 47°10' W 002°18'7 0.8
2020-Sep-23 01:59N 47°04' W 002°11'0 0.0
2020-Sep-22 22:59N 47°04' W 002°11'0 0.0
2020-Sep-22 16:29N 47°04' W 002°11'0 0.0
2020-Sep-22 15:59N 47°04' W 002°11'2 5.2
2020-Sep-22 15:30N 47°05' W 002°15'4 1.3
2020-Sep-22 12:00N 47°09' W 002°18'1 0.5
2020-Sep-22 10:59N 47°08' W 002°18'7 6.7
2020-Sep-22 10:00N 47°05' W 002°10'2 3.7
2020-Sep-22 09:30N 47°04' W 002°08'2 1.1
2020-Sep-22 08:00N 47°05' W 002°09'1 2.2
2020-Sep-22 07:30N 47°06' W 002°09'1 2.5
2020-Sep-22 07:00N 47°07' W 002°11'8 4.2
2020-Sep-22 05:00N 47°15' W 002°14'2 2.3
2020-Sep-22 03:58N 47°17' W 002°12'1 0.9
2020-Sep-22 03:24N 47°17' W 002°12'0 0.0
2020-Sep-21 22:45N 47°17' W 002°12'0 0.0
2020-Sep-21 21:54N 47°17' W 002°12'0 0.0
2020-Sep-21 21:30N 47°17' W 002°12'0 0.0
2020-Sep-21 20:18N 47°17' W 002°12'0 0.0
2020-Sep-21 15:54N 47°17' W 002°12'0 0.0
2020-Sep-21 10:30N 47°17' W 002°12'0 0.0
2020-Sep-21 08:30N 47°17' W 002°12'0 0.0
2020-Sep-21 07:10N 47°17' W 002°12'3 2.0
2020-Sep-21 05:28N 47°14' W 002°15'23 5.7
2020-Sep-21 01:29N 47°11' W 002°48'4 4.2
2020-Sep-21 00:30N 47°12' W 002°54'5 4.7
2020-Sep-20 23:24N 47°13' W 003°01'16 4.1
2020-Sep-20 19:30N 47°17' W 003°24'3 5.4
2020-Sep-20 19:00N 47°19' W 003°27'8 7.5
2020-Sep-20 18:00N 47°23' W 003°36'4 8.7
2020-Sep-20 17:30N 47°26' W 003°41'510.0
2020-Sep-20 17:00N 47°29' W 003°47'610.4
2020-Sep-20 16:27N 47°32' W 003°54'2310.0
2020-Sep-20 14:09N 47°46' W 004°22'16 9.6
2020-Sep-20 12:31N 47°57' W 004°38'5 8.6
2020-Sep-20 11:58N 48°00' W 004°43'3 7.4
2020-Sep-20 11:30N 48°03' W 004°46'1010.2
2020-Sep-20 10:30N 48°13' W 004°45'15 7.4
2020-Sep-20 08:29N 48°23' W 004°29'0 0.0
2020-Sep-20 06:59N 48°23' W 004°29'0 0.0
2020-Sep-20 05:59N 48°23' W 004°29'0 0.0
2020-Sep-19 23:59N 48°23' W 004°29'0 0.0
2020-Sep-19 20:29N 48°23' W 004°29'0 0.0
2020-Sep-19 18:59N 48°23' W 004°29'0 0.0
2020-Sep-19 17:29N 48°23' W 004°29'0 0.0
2020-Sep-19 16:29N 48°23' W 004°29'0 0.0
2020-Sep-19 13:59N 48°23' W 004°29'0 0.0
2020-Sep-19 10:59N 48°23' W 004°29'0 0.0
2020-Sep-19 09:59N 48°23' W 004°29'0 0.0
2020-Sep-19 07:29N 48°23' W 004°29'0 0.0
2020-Sep-19 06:59N 48°23' W 004°29'0 0.0
2020-Sep-19 04:59N 48°23' W 004°29'0 0.0
2020-Sep-19 04:29N 48°23' W 004°29'0 0.0
2020-Sep-19 02:29N 48°23' W 004°29'0 0.0
2020-Sep-19 01:29N 48°23' W 004°29'0 0.0
2020-Sep-18 23:29N 48°23' W 004°29'0 0.0
2020-Sep-18 22:29N 48°23' W 004°29'0 0.0
2020-Sep-18 19:59N 48°23' W 004°29'0 0.0
2020-Sep-18 18:59N 48°23' W 004°29'0 0.0
2020-Sep-18 17:59N 48°23' W 004°29'0 0.0
2020-Sep-18 14:59N 48°23' W 004°29'0 0.0
2020-Sep-18 13:29N 48°23' W 004°29'0 0.0
2020-Sep-18 10:29N 48°23' W 004°29'0 0.0
2020-Sep-18 07:29N 48°23' W 004°29'0 0.0
2020-Sep-18 06:59N 48°23' W 004°29'0 0.0
2020-Sep-18 04:59N 48°23' W 004°29'0 0.0
2020-Sep-18 02:59N 48°23' W 004°29'0 0.0
2020-Sep-18 01:29N 48°23' W 004°29'0 0.0
2020-Sep-18 00:59N 48°23' W 004°29'0 0.0
2020-Sep-17 19:29N 48°23' W 004°29'13 5.4
2020-Sep-17 17:00N 48°22' W 004°49'13 8.7
2020-Sep-17 15:30N 48°35' W 004°48'7 6.7
2020-Sep-17 14:30N 48°39' W 004°40'7110.8
2020-Sep-17 07:57N 48°57' W 002°56'510.6
2020-Sep-17 07:30N 48°57' W 002°49'3 6.3
2020-Sep-17 07:00N 48°54' W 002°46'16 4.3
2020-Sep-17 03:20N 48°39' W 002°49'0 0.0
2020-Sep-17 01:20N 48°39' W 002°49'0 0.0
2020-Sep-17 00:53N 48°39' W 002°49'0 0.0
2020-Sep-16 23:56N 48°39' W 002°49'0 0.0
2020-Sep-16 20:23N 48°39' W 002°49'0 0.0
2020-Sep-16 18:29N 48°39' W 002°49'0 0.0
2020-Sep-16 17:56N 48°39' W 002°49'0 0.0
2020-Sep-16 16:56N 48°39' W 002°49'0 0.0
2020-Sep-16 16:08N 48°39' W 002°49'5 1.3
2020-Sep-16 12:00N 48°40' W 002°41'5 1.1
2020-Sep-16 06:59N 48°39' W 002°49'0 0.0
2020-Sep-16 04:56N 48°39' W 002°49'0 0.0
2020-Sep-16 04:29N 48°39' W 002°49'0 0.0
2020-Sep-16 03:59N 48°39' W 002°49'0 0.0
2020-Sep-16 02:59N 48°39' W 002°49'0 0.0
2020-Sep-15 23:59N 48°39' W 002°49'0 0.0
2020-Sep-15 23:29N 48°39' W 002°49'0 0.0
2020-Sep-15 22:29N 48°39' W 002°49'0 0.0
2020-Sep-15 20:29N 48°39' W 002°49'6 0.9
2020-Sep-15 13:45N 48°42' W 002°42'2 6.4
2020-Sep-15 13:31N 48°43' W 002°40'1 0.4
2020-Sep-15 12:00N 48°44' W 002°40'2 0.9
2020-Sep-15 09:30N 48°42' W 002°39'5 2.4
2020-Sep-15 07:30N 48°37' W 002°39'7 3.4
2020-Sep-15 05:29N 48°39' W 002°49'0 0.0
2020-Sep-15 02:59N 48°39' W 002°49'0 0.0
2020-Sep-15 02:29N 48°39' W 002°49'0 0.0
2020-Sep-14 20:59N 48°39' W 002°49'0 0.0
2020-Sep-14 19:53N 48°39' W 002°49'9 1.7
2020-Sep-14 14:21N 48°43' W 002°37'2 1.1
2020-Sep-14 12:30N 48°44' W 002°34'5 2.2
2020-Sep-14 10:00N 48°40' W 002°39'5 1.3
2020-Sep-14 06:30N 48°37' W 002°45'4 3.6
2020-Sep-14 05:29N 48°39' W 002°49'0 0.0
2020-Sep-14 04:59N 48°39' W 002°49'0 0.0
2020-Sep-14 03:56N 48°39' W 002°49'0 0.0
2020-Sep-14 03:29N 48°39' W 002°49'0 0.0
2020-Sep-14 02:53N 48°39' W 002°49'0 0.0
2020-Sep-14 02:26N 48°39' W 002°49'0 0.0
2020-Sep-14 00:59N 48°39' W 002°49'0 0.0
2020-Sep-13 22:26N 48°39' W 002°49'0 0.0
2020-Sep-13 21:59N 48°39' W 002°49'0 0.0
2020-Sep-13 14:13N 48°39' W 002°49'0 0.0
2020-Sep-13 13:25N 48°39' W 002°49'  
Track history (hours):
 
Tides and Currents Weather Stations Pressure Air Temp Water Temp Dewpoint Dewpoint Depression Visibility Wind Speed Wind Dir Waves Ship Positions

Oceanographic research ship Thalia (France)

Detailed information on ship capabilities available from University of Delaware's Ocean Information Center.

Last reported at 2020-Sep-23 11:43 UTC. Time now 2020-Sep-24 07:19 UTC.
Position N 47°11' W 002°17'.

Length 25 m; beam 7 m.

Type: Fishing. MMSI: 227270000.

Date/timePositionNaut miles runAvg speedWind from/ knotsBaromVisibWave heightAir tempDewpointWater temp
2020-Sep-23 11:43N 47°11' W 002°17'1 1.6
2020-Sep-23 10:59N 47°10' W 002°16'1 2.8
2020-Sep-23 10:30N 47°10' W 002°18'7 0.8
2020-Sep-23 01:59N 47°04' W 002°11'0 0.0
2020-Sep-22 22:59N 47°04' W 002°11'0 0.0
2020-Sep-22 16:29N 47°04' W 002°11'0 0.0
2020-Sep-22 15:59N 47°04' W 002°11'2 5.2
2020-Sep-22 15:30N 47°05' W 002°15'4 1.3
2020-Sep-22 12:00N 47°09' W 002°18'1 0.5
2020-Sep-22 10:59N 47°08' W 002°18'7 6.7
2020-Sep-22 10:00N 47°05' W 002°10'2 3.7
2020-Sep-22 09:30N 47°04' W 002°08'2 1.1
2020-Sep-22 08:00N 47°05' W 002°09'1 2.2
2020-Sep-22 07:30N 47°06' W 002°09'1 2.5
2020-Sep-22 07:00N 47°07' W 002°11'8 4.2
2020-Sep-22 05:00N 47°15' W 002°14'2 2.3
2020-Sep-22 03:58N 47°17' W 002°12'1 0.9
2020-Sep-22 03:24N 47°17' W 002°12'0 0.0
2020-Sep-21 22:45N 47°17' W 002°12'0 0.0
2020-Sep-21 21:54N 47°17' W 002°12'0 0.0
2020-Sep-21 21:30N 47°17' W 002°12'0 0.0
2020-Sep-21 20:18N 47°17' W 002°12'0 0.0
2020-Sep-21 15:54N 47°17' W 002°12'0 0.0
2020-Sep-21 10:30N 47°17' W 002°12'0 0.0
2020-Sep-21 08:30N 47°17' W 002°12'0 0.0
2020-Sep-21 07:10N 47°17' W 002°12'3 2.0
2020-Sep-21 05:28N 47°14' W 002°15'23 5.7
2020-Sep-21 01:29N 47°11' W 002°48'4 4.2
2020-Sep-21 00:30N 47°12' W 002°54'5 4.7
2020-Sep-20 23:24N 47°13' W 003°01'16 4.1
2020-Sep-20 19:30N 47°17' W 003°24'3 5.4
2020-Sep-20 19:00N 47°19' W 003°27'8 7.5
2020-Sep-20 18:00N 47°23' W 003°36'4 8.7
2020-Sep-20 17:30N 47°26' W 003°41'510.0
2020-Sep-20 17:00N 47°29' W 003°47'610.4
2020-Sep-20 16:27N 47°32' W 003°54'2310.0
2020-Sep-20 14:09N 47°46' W 004°22'16 9.6
2020-Sep-20 12:31N 47°57' W 004°38'5 8.6
2020-Sep-20 11:58N 48°00' W 004°43'3 7.4
2020-Sep-20 11:30N 48°03' W 004°46'1010.2
2020-Sep-20 10:30N 48°13' W 004°45'15 7.4
2020-Sep-20 08:29N 48°23' W 004°29'0 0.0
2020-Sep-20 06:59N 48°23' W 004°29'0 0.0
2020-Sep-20 05:59N 48°23' W 004°29'0 0.0
2020-Sep-19 23:59N 48°23' W 004°29'0 0.0
2020-Sep-19 20:29N 48°23' W 004°29'0 0.0
2020-Sep-19 18:59N 48°23' W 004°29'0 0.0
2020-Sep-19 17:29N 48°23' W 004°29'0 0.0
2020-Sep-19 16:29N 48°23' W 004°29'0 0.0
2020-Sep-19 13:59N 48°23' W 004°29'0 0.0
2020-Sep-19 10:59N 48°23' W 004°29'0 0.0
2020-Sep-19 09:59N 48°23' W 004°29'0 0.0
2020-Sep-19 07:29N 48°23' W 004°29'0 0.0
2020-Sep-19 06:59N 48°23' W 004°29'0 0.0
2020-Sep-19 04:59N 48°23' W 004°29'0 0.0
2020-Sep-19 04:29N 48°23' W 004°29'0 0.0
2020-Sep-19 02:29N 48°23' W 004°29'0 0.0
2020-Sep-19 01:29N 48°23' W 004°29'0 0.0
2020-Sep-18 23:29N 48°23' W 004°29'0 0.0
2020-Sep-18 22:29N 48°23' W 004°29'0 0.0
2020-Sep-18 19:59N 48°23' W 004°29'0 0.0
2020-Sep-18 18:59N 48°23' W 004°29'0 0.0
2020-Sep-18 17:59N 48°23' W 004°29'0 0.0
2020-Sep-18 14:59N 48°23' W 004°29'0 0.0
2020-Sep-18 13:29N 48°23' W 004°29'0 0.0
2020-Sep-18 10:29N 48°23' W 004°29'0 0.0
2020-Sep-18 07:29N 48°23' W 004°29'0 0.0
2020-Sep-18 06:59N 48°23' W 004°29'0 0.0
2020-Sep-18 04:59N 48°23' W 004°29'0 0.0
2020-Sep-18 02:59N 48°23' W 004°29'0 0.0
2020-Sep-18 01:29N 48°23' W 004°29'0 0.0
2020-Sep-18 00:59N 48°23' W 004°29'0 0.0
2020-Sep-17 19:29N 48°23' W 004°29'13 5.4
2020-Sep-17 17:00N 48°22' W 004°49'13 8.7
2020-Sep-17 15:30N 48°35' W 004°48'7 6.7
2020-Sep-17 14:30N 48°39' W 004°40'7110.8
2020-Sep-17 07:57N 48°57' W 002°56'510.6
2020-Sep-17 07:30N 48°57' W 002°49'3 6.3
2020-Sep-17 07:00N 48°54' W 002°46'16 4.3
2020-Sep-17 03:20N 48°39' W 002°49'0 0.0
2020-Sep-17 01:20N 48°39' W 002°49'0 0.0
2020-Sep-17 00:53N 48°39' W 002°49'0 0.0
2020-Sep-16 23:56N 48°39' W 002°49'0 0.0
2020-Sep-16 20:23N 48°39' W 002°49'0 0.0
2020-Sep-16 18:29N 48°39' W 002°49'0 0.0
2020-Sep-16 17:56N 48°39' W 002°49'0 0.0
2020-Sep-16 16:56N 48°39' W 002°49'0 0.0
2020-Sep-16 16:08N 48°39' W 002°49'5 1.3
2020-Sep-16 12:00N 48°40' W 002°41'5 1.1
2020-Sep-16 06:59N 48°39' W 002°49'0 0.0
2020-Sep-16 04:56N 48°39' W 002°49'0 0.0
2020-Sep-16 04:29N 48°39' W 002°49'0 0.0
2020-Sep-16 03:59N 48°39' W 002°49'0 0.0
2020-Sep-16 02:59N 48°39' W 002°49'0 0.0
2020-Sep-15 23:59N 48°39' W 002°49'0 0.0
2020-Sep-15 23:29N 48°39' W 002°49'0 0.0
2020-Sep-15 22:29N 48°39' W 002°49'0 0.0
2020-Sep-15 20:29N 48°39' W 002°49'6 0.9
2020-Sep-15 13:45N 48°42' W 002°42'2 6.4
2020-Sep-15 13:31N 48°43' W 002°40'1 0.4
2020-Sep-15 12:00N 48°44' W 002°40'2 0.9
2020-Sep-15 09:30N 48°42' W 002°39'5 2.4
2020-Sep-15 07:30N 48°37' W 002°39'7 3.4
2020-Sep-15 05:29N 48°39' W 002°49'0 0.0
2020-Sep-15 02:59N 48°39' W 002°49'0 0.0
2020-Sep-15 02:29N 48°39' W 002°49'0 0.0
2020-Sep-14 20:59N 48°39' W 002°49'0 0.0
2020-Sep-14 19:53N 48°39' W 002°49'9 1.7
2020-Sep-14 14:21N 48°43' W 002°37'2 1.1
2020-Sep-14 12:30N 48°44' W 002°34'5 2.2
2020-Sep-14 10:00N 48°40' W 002°39'5 1.3
2020-Sep-14 06:30N 48°37' W 002°45'4 3.6
2020-Sep-14 05:29N 48°39' W 002°49'0 0.0
2020-Sep-14 04:59N 48°39' W 002°49'0 0.0
2020-Sep-14 03:56N 48°39' W 002°49'0 0.0
2020-Sep-14 03:29N 48°39' W 002°49'0 0.0
2020-Sep-14 02:53N 48°39' W 002°49'0 0.0
2020-Sep-14 02:26N 48°39' W 002°49'0 0.0
2020-Sep-14 00:59N 48°39' W 002°49'0 0.0
2020-Sep-13 22:26N 48°39' W 002°49'0 0.0
2020-Sep-13 21:59N 48°39' W 002°49'0 0.0
2020-Sep-13 14:13N 48°39' W 002°49'0 0.0
2020-Sep-13 13:25N 48°39' W 002°49'  

Dump ship's entire track history